METAR

SADR31 MDSD 230200Z
METAR
METAR MDPP 230200Z 00000KT 9999 FEW018 23/22 Q1016=
METAR MDST 230200Z 16005KT 9999 FEW018 23/22 Q1016=
METAR MDPC 230200Z 00000KT 9999 FEW020 23/21 Q1017=
METAR MDSD 230200Z 00000KT 9999 FEW018 24/22 Q1016=
METAR MDLR 230200Z 00000KT 9999 FEW018 20/20 Q1016 NOSIG=